createdAt,value
2023-05-25T08:12:07.655Z,25.9736
2023-05-25T08:14:01.648Z,25.8966
2023-05-25T08:14:01.648Z,25.9956
2023-05-25T08:14:59.551Z,26.0656
2023-05-25T08:15:53.610Z,26.1514
2023-05-25T08:16:56.505Z,26.2500
2023-05-25T08:17:58.794Z,26.3327
2023-05-25T08:19:01.331Z,26.3855
2023-05-25T08:20:03.953Z,26.4610
2023-05-25T08:21:06.495Z,26.4669
2023-05-25T08:22:09.086Z,26.4265
2023-05-25T08:23:11.641Z,26.3371
2023-05-25T08:24:14.220Z,26.2657
2023-05-25T08:25:16.787Z,26.2613
2023-05-25T08:26:37.855Z,26.2270
2023-05-25T08:27:22.964Z,26.2558
2023-05-25T08:28:24.537Z,26.2743
2023-05-25T08:29:27.097Z,26.2990
2023-05-25T08:30:29.687Z,26.3337
2023-05-25T08:31:32.319Z,26.3636
2023-05-25T08:32:34.970Z,26.3821
2023-05-25T08:33:37.422Z,26.3272
2023-05-25T08:34:39.983Z,26.3327
2023-05-25T08:35:42.726Z,26.3651
2023-05-25T08:36:45.149Z,26.4085
2023-05-25T08:37:47.755Z,26.3587
2023-05-25T08:38:50.281Z,26.3348
2023-05-25T08:39:52.884Z,26.4078
2023-05-25T08:40:55.432Z,26.4764
2023-05-25T08:41:58.030Z,26.5033
2023-05-25T08:43:00.624Z,26.5375
2023-05-25T08:44:03.187Z,26.5098
2023-05-25T08:45:05.755Z,26.5320
2023-05-25T08:46:08.345Z,26.5891
2023-05-25T08:47:10.895Z,26.5963
2023-05-25T08:48:13.938Z,26.5713
2023-05-25T08:49:16.111Z,26.5878
2023-05-25T08:50:18.698Z,26.5584
2023-05-25T08:51:21.225Z,26.5958
2023-05-25T08:52:23.834Z,26.6509
2023-05-25T08:53:26.373Z,26.6738
2023-05-25T08:54:28.974Z,26.7057
2023-05-25T08:55:31.527Z,26.6980
2023-05-25T08:56:35.761Z,26.7179
2023-05-25T08:57:36.689Z,26.7232
2023-05-25T08:58:39.320Z,26.6701
2023-05-25T08:59:41.825Z,26.6293
2023-05-25T09:00:44.598Z,26.6333
2023-05-25T09:01:47.027Z,26.6296
2023-05-25T09:02:49.625Z,26.6244
2023-05-25T09:03:52.231Z,26.6620
2023-05-25T09:04:54.723Z,26.6953
2023-05-25T09:05:57.292Z,26.7121
2023-05-25T09:07:09.645Z,26.7482
2023-05-25T09:08:03.445Z,26.8001
2023-05-25T09:09:05.046Z,26.8321
2023-05-25T09:10:07.611Z,26.8564
2023-05-25T09:11:10.254Z,26.8629
2023-05-25T09:12:12.746Z,26.8829
2023-05-25T09:13:21.384Z,26.9193
2023-05-25T09:14:18.954Z,26.9728
2023-05-25T09:15:20.497Z,27.0171
2023-05-25T09:16:23.073Z,27.0273
2023-05-25T09:17:25.655Z,27.0250
2023-05-25T09:18:28.258Z,27.0325
2023-05-25T09:19:31.000Z,27.0564
2023-05-25T09:20:33.449Z,27.1150
2023-05-25T09:21:35.968Z,27.1270
2023-05-25T09:22:38.524Z,27.1266
2023-05-25T09:23:41.105Z,27.1145
2023-05-25T09:24:43.697Z,27.0937
2023-05-25T09:25:46.269Z,27.1191
2023-05-25T09:26:48.907Z,27.1573
2023-05-25T09:27:51.428Z,27.2053
2023-05-25T09:28:53.985Z,27.2674
2023-05-25T09:29:56.591Z,27.2788
2023-05-25T09:30:59.148Z,27.2877
2023-05-25T09:32:01.788Z,27.3228
2023-05-25T09:33:04.364Z,27.3157
2023-05-25T09:34:06.891Z,27.2973
2023-05-25T09:35:09.495Z,27.2669
2023-05-25T09:36:12.058Z,27.3061
2023-05-25T09:37:14.785Z,27.4173
2023-05-25T09:38:17.490Z,27.4149
2023-05-25T09:39:19.901Z,27.3518
2023-05-25T09:40:22.375Z,27.4023
2023-05-25T09:41:25.010Z,27.4418
2023-05-25T09:42:27.496Z,27.5057
2023-05-25T09:43:41.938Z,27.5876
2023-05-25T09:44:33.697Z,27.5917
2023-05-25T09:45:37.419Z,27.5913
2023-05-25T09:46:37.820Z,27.5726
2023-05-25T09:47:40.357Z,27.5723
2023-05-25T09:48:42.950Z,27.5536
2023-05-25T09:49:45.494Z,27.5556
2023-05-25T09:50:49.731Z,27.5812
2023-05-25T09:51:50.669Z,27.5848
2023-05-25T09:52:53.252Z,27.5542
2023-05-25T09:53:55.789Z,27.4971
2023-05-25T09:54:58.374Z,27.4736
2023-05-25T09:56:01.947Z,27.4692
2023-05-25T09:57:03.536Z,27.4951
2023-05-25T09:58:06.091Z,27.4598
2023-05-25T09:59:08.786Z,27.4584
2023-05-25T10:00:11.456Z,27.4378
2023-05-25T10:01:14.330Z,27.3892
2023-05-25T10:02:16.749Z,27.3744
2023-05-25T10:03:19.284Z,27.3866
2023-05-25T10:04:21.909Z,27.4268
2023-05-25T10:05:24.419Z,27.4205
2023-05-25T10:06:27.562Z,27.4085
2023-05-25T10:07:29.369Z,27.4363
2023-05-25T10:08:32.442Z,27.4612
2023-05-25T10:09:34.623Z,27.5361
2023-05-25T10:10:37.002Z,27.6362
2023-05-25T10:11:39.623Z,27.7415
2023-05-25T10:12:42.150Z,27.8505
2023-05-25T10:13:44.751Z,27.8391
2023-05-25T10:14:47.294Z,27.7553
2023-05-25T10:15:49.937Z,27.6491
2023-05-25T10:16:52.485Z,27.6291
2023-05-25T10:17:55.053Z,27.6292
2023-05-25T10:18:58.617Z,27.6659
2023-05-25T10:20:00.320Z,27.7305
2023-05-25T10:21:03.354Z,27.7162
2023-05-25T10:22:05.358Z,27.7262
2023-05-25T10:23:07.914Z,27.7476
2023-05-25T10:24:10.496Z,27.7616
2023-05-25T10:25:13.087Z,27.7756
2023-05-25T10:26:15.643Z,27.7730
2023-05-25T10:27:26.417Z,27.7776
2023-05-25T10:28:21.788Z,27.7799
2023-05-25T10:29:23.349Z,27.8407
2023-05-25T10:30:25.946Z,27.8915
2023-05-25T10:31:28.788Z,27.8674
2023-05-25T10:32:31.111Z,27.7774
2023-05-25T10:33:33.667Z,27.6878
2023-05-25T10:34:36.246Z,27.6451
2023-05-25T10:35:42.492Z,27.6065
2023-05-25T10:36:42.406Z,27.5848
2023-05-25T10:37:43.977Z,27.5551
2023-05-25T10:38:46.550Z,27.5295
2023-05-25T10:39:49.101Z,27.5087
2023-05-25T10:40:51.757Z,27.4817
2023-05-25T10:41:54.268Z,27.4757
2023-05-25T10:42:56.868Z,27.5226
2023-05-25T10:43:59.490Z,27.5751
2023-05-25T10:45:02.020Z,27.6044
2023-05-25T10:46:04.573Z,27.6136
2023-05-25T10:47:07.195Z,27.6351
2023-05-25T10:48:09.810Z,27.6642
2023-05-25T10:49:12.316Z,27.6501
2023-05-25T10:50:14.907Z,27.5868
2023-05-25T10:51:17.467Z,27.5665
2023-05-25T10:52:20.044Z,27.5608
2023-05-25T10:53:22.650Z,27.5306
2023-05-25T10:54:25.192Z,27.5252
2023-05-25T10:55:27.768Z,27.5045
2023-05-25T10:56:30.330Z,27.4810
2023-05-25T10:57:32.922Z,27.4677
2023-05-25T10:58:35.517Z,27.4598
2023-05-25T10:59:38.070Z,27.4458
2023-05-25T11:00:40.707Z,27.4069
2023-05-25T11:01:43.331Z,27.4264
2023-05-25T11:02:45.799Z,27.4169
2023-05-25T11:03:48.587Z,27.4166
2023-05-25T11:04:50.972Z,27.4383
2023-05-25T11:05:53.519Z,27.4590
2023-05-25T11:06:56.079Z,27.4936
2023-05-25T11:07:58.669Z,27.5861
2023-05-25T11:09:01.529Z,27.6271
2023-05-25T11:10:03.814Z,27.6263
2023-05-25T11:11:06.378Z,27.6334
2023-05-25T11:12:08.994Z,27.6541
2023-05-25T11:13:11.525Z,27.6444
2023-05-25T11:14:14.198Z,27.6071
2023-05-25T11:15:16.787Z,27.6612
2023-05-25T11:16:19.304Z,27.7626
2023-05-25T11:17:21.942Z,27.7834
2023-05-25T11:18:24.406Z,27.6886
2023-05-25T11:19:26.998Z,27.6889
2023-05-25T11:20:29.640Z,27.7449
2023-05-25T11:21:32.125Z,27.7284
2023-05-25T11:22:34.710Z,27.7015
2023-05-25T11:23:37.268Z,27.6967
2023-05-25T11:24:39.879Z,27.6945
2023-05-25T11:25:42.634Z,27.6831
2023-05-25T11:26:45.026Z,27.6516
2023-05-25T11:27:47.574Z,27.6229
2023-05-25T11:28:50.160Z,27.7835
2023-05-25T11:29:52.750Z,27.7854
2023-05-25T11:30:55.325Z,27.7286
2023-05-25T11:31:57.883Z,27.7246
2023-05-25T11:33:00.485Z,27.7322
2023-05-25T11:34:03.037Z,27.7949
2023-05-25T11:35:05.654Z,27.8682
2023-05-25T11:36:08.196Z,27.8826
2023-05-25T11:37:12.306Z,27.8830
2023-05-25T11:38:13.327Z,28.1787
2023-05-25T11:39:22.368Z,28.2599
2023-05-25T11:40:19.504Z,28.0568
2023-05-25T11:41:21.060Z,28.0684
2023-05-25T11:42:23.612Z,28.0744
2023-05-25T11:43:26.210Z,28.0055
2023-05-25T11:44:28.771Z,27.9614
2023-05-25T11:45:31.367Z,27.9972
2023-05-25T11:46:33.991Z,27.9240
2023-05-25T11:47:38.056Z,27.8882
2023-05-25T11:48:39.046Z,27.8736
2023-05-25T11:49:41.658Z,27.8678
2023-05-25T11:50:44.432Z,27.8944
2023-05-25T11:51:46.792Z,27.9367
2023-05-25T11:52:49.345Z,27.9034
2023-05-25T11:53:51.941Z,27.8433
2023-05-25T11:54:54.509Z,27.8017
2023-05-25T11:56:07.034Z,27.7447
2023-05-25T11:57:00.636Z,27.7043
2023-05-25T11:58:02.253Z,27.7453
2023-05-25T11:59:04.798Z,27.7413
2023-05-25T12:00:07.384Z,27.7189
2023-05-25T12:01:09.967Z,27.6625
2023-05-25T12:02:12.548Z,27.7580
2023-05-25T12:03:15.182Z,27.8861
2023-05-25T12:04:17.819Z,27.9340
2023-05-25T12:05:20.305Z,27.9129
2023-05-25T12:06:22.883Z,27.9184
2023-05-25T12:07:25.429Z,28.0021
2023-05-25T12:08:27.994Z,27.9847
2023-05-25T12:09:30.562Z,27.9022
2023-05-25T12:10:33.134Z,27.8759
2023-05-25T12:11:35.733Z,27.8124
2023-05-25T12:12:38.299Z,27.8098
2023-05-25T12:13:40.883Z,27.8045
2023-05-25T12:14:43.446Z,27.8377
2023-05-25T12:15:46.123Z,27.9245
2023-05-25T12:16:48.678Z,28.0517
2023-05-25T12:17:51.271Z,28.0808
2023-05-25T12:18:53.833Z,28.0592
2023-05-25T12:19:56.401Z,28.0104
2023-05-25T12:20:59.038Z,27.9885
2023-05-25T12:22:01.563Z,27.9207
2023-05-25T12:23:04.125Z,27.8440
2023-05-25T12:24:06.694Z,27.7625
2023-05-25T12:25:09.268Z,27.7402
2023-05-25T12:26:11.848Z,27.7270
2023-05-25T12:27:14.437Z,27.7172
2023-05-25T12:28:17.023Z,27.6600
2023-05-25T12:29:19.575Z,27.6185
2023-05-25T12:30:22.148Z,27.5905
2023-05-25T12:31:24.840Z,27.6082
2023-05-25T12:32:27.334Z,27.6441
2023-05-25T12:33:29.870Z,27.7551
2023-05-25T12:34:32.472Z,27.8268
2023-05-25T12:35:35.043Z,27.8527
2023-05-25T12:36:37.613Z,27.8991
2023-05-25T12:37:40.193Z,27.8547
2023-05-25T12:38:42.771Z,27.8249
2023-05-25T12:39:45.321Z,27.7559
2023-05-25T12:40:48.098Z,27.6787
2023-05-25T12:41:51.807Z,27.7454
2023-05-25T12:42:53.080Z,27.7615
2023-05-25T12:43:55.624Z,27.7951
2023-05-25T12:44:58.222Z,27.8042
2023-05-25T12:46:00.828Z,27.8515
2023-05-25T12:47:03.385Z,27.8914
2023-05-25T12:48:06.015Z,27.9474
2023-05-25T12:49:08.502Z,27.9992
2023-05-25T12:50:11.083Z,28.0277
2023-05-25T12:51:13.663Z,28.0312
2023-05-25T12:52:16.229Z,28.0153
2023-05-25T12:53:19.075Z,28.0007
2023-05-25T12:54:21.359Z,27.9995
2023-05-25T12:55:23.970Z,28.0172
2023-05-25T12:56:26.527Z,28.0571
2023-05-25T12:57:41.578Z,28.0857
2023-05-25T12:58:40.623Z,28.1327
2023-05-25T12:59:34.278Z,28.1240
2023-05-25T13:00:36.841Z,28.1161
2023-05-25T13:01:39.482Z,28.1298
2023-05-25T13:02:42.026Z,28.1196
2023-05-25T13:03:44.597Z,28.0821
2023-05-25T13:04:47.122Z,28.0669
2023-05-25T13:05:49.813Z,28.0536
2023-05-25T13:06:52.260Z,28.0274
2023-05-25T13:07:54.868Z,28.0065
2023-05-25T13:08:57.444Z,28.0180
2023-05-25T13:10:00.010Z,28.0301
2023-05-25T13:11:02.571Z,28.0335
2023-05-25T13:12:05.165Z,28.0070
2023-05-25T13:13:07.739Z,28.0247
2023-05-25T13:14:10.328Z,28.0186
2023-05-25T13:15:12.887Z,28.0019
2023-05-25T13:16:15.491Z,28.0044
2023-05-25T13:17:18.030Z,27.9977
2023-05-25T13:18:20.636Z,27.9927
2023-05-25T13:19:23.199Z,28.0170
2023-05-25T13:20:25.808Z,28.0320
2023-05-25T13:21:28.359Z,28.0234
2023-05-25T13:22:30.911Z,27.9914
2023-05-25T13:23:33.483Z,27.9710
2023-05-25T13:24:36.118Z,27.9436
2023-05-25T13:25:38.621Z,27.9356
2023-05-25T13:26:41.205Z,27.9624
2023-05-25T13:27:43.781Z,27.9809
2023-05-25T13:28:46.348Z,28.0012
2023-05-25T13:29:48.961Z,28.0101
2023-05-25T13:30:51.498Z,28.0143
2023-05-25T13:31:54.183Z,28.0019
2023-05-25T13:32:56.670Z,27.9914
2023-05-25T13:33:59.227Z,27.9923
2023-05-25T13:35:01.843Z,27.9885
2023-05-25T13:36:04.373Z,28.0064
2023-05-25T13:37:06.948Z,28.0421
2023-05-25T13:38:09.501Z,28.0654
2023-05-25T13:39:12.107Z,28.0537
2023-05-25T13:40:14.667Z,28.0424
2023-05-25T13:41:17.258Z,27.9633
2023-05-25T13:42:19.803Z,27.9430
2023-05-25T13:43:22.406Z,27.9724
2023-05-25T13:44:24.951Z,28.0255
2023-05-25T13:45:27.597Z,28.0446
2023-05-25T13:46:35.234Z,28.0207
2023-05-25T13:47:33.830Z,28.0048
2023-05-25T13:48:35.301Z,27.9518
2023-05-25T13:49:37.820Z,27.9482
2023-05-25T13:50:40.411Z,27.9744
2023-05-25T13:51:43.014Z,27.9789
2023-05-25T13:52:45.526Z,27.9730
2023-05-25T13:53:48.132Z,27.9342
2023-05-25T13:54:50.693Z,27.9587
2023-05-25T13:55:53.291Z,27.9909
2023-05-25T13:56:55.831Z,27.9908
2023-05-25T13:57:58.405Z,28.0071
2023-05-25T13:59:00.996Z,27.9532
2023-05-25T14:00:03.651Z,27.8945
2023-05-25T14:01:06.183Z,27.8957
2023-05-25T14:02:08.806Z,27.9215
2023-05-25T14:03:11.339Z,27.9409
2023-05-25T14:04:13.845Z,27.9477
2023-05-25T14:05:16.410Z,27.9198
2023-05-25T14:06:19.008Z,27.8689
2023-05-25T14:07:21.571Z,27.7607
2023-05-25T14:08:24.181Z,27.6301
2023-05-25T14:09:26.715Z,27.5275
2023-05-25T14:10:29.506Z,27.4311
2023-05-25T14:11:32.004Z,27.3136
2023-05-25T14:12:34.551Z,27.2747
2023-05-25T14:13:37.003Z,27.3171
2023-05-25T14:14:39.611Z,27.3681
2023-05-25T14:15:42.337Z,27.3823
2023-05-25T14:16:45.227Z,27.3766
2023-05-25T14:17:47.348Z,27.3922
2023-05-25T14:18:49.895Z,27.3602
2023-05-25T14:19:52.462Z,27.3536
2023-05-25T14:20:55.230Z,27.3914
2023-05-25T14:22:11.947Z,27.3531
2023-05-25T14:23:01.212Z,27.3717
2023-05-25T14:24:02.776Z,27.3464
2023-05-25T14:25:05.380Z,27.2940
2023-05-25T14:26:07.943Z,27.2763
2023-05-25T14:27:10.534Z,27.1915
2023-05-25T14:28:13.119Z,27.0051
2023-05-25T14:29:15.697Z,26.9341
2023-05-25T14:30:18.239Z,26.9156
2023-05-25T14:31:20.935Z,26.9246
2023-05-25T14:32:23.467Z,26.9628
2023-05-25T14:33:25.975Z,27.0046
2023-05-25T14:34:28.581Z,27.0460
2023-05-25T14:35:31.140Z,27.0986
2023-05-25T14:36:33.692Z,27.1168
2023-05-25T14:37:36.309Z,27.1501
2023-05-25T14:38:38.852Z,27.1379
2023-05-25T14:39:41.439Z,27.0936
2023-05-25T14:40:44.026Z,27.0998
2023-05-25T14:41:46.604Z,27.0396
2023-05-25T14:42:49.707Z,26.9945
2023-05-25T14:43:51.740Z,26.9718
2023-05-25T14:44:54.331Z,26.9346
2023-05-25T14:45:56.911Z,26.8364
2023-05-25T14:46:59.495Z,26.6867
2023-05-25T14:48:15.325Z,26.6086
2023-05-25T14:49:05.650Z,26.5801
2023-05-25T14:50:07.224Z,26.5870
2023-05-25T14:51:09.761Z,26.5552
2023-05-25T14:52:12.398Z,26.5545
2023-05-25T14:53:15.196Z,26.5335
2023-05-25T14:54:17.519Z,26.5427
2023-05-25T14:55:20.095Z,26.5944
2023-05-25T14:56:22.671Z,26.6422
2023-05-25T14:57:25.254Z,26.6689
2023-05-25T14:58:27.859Z,26.6589
2023-05-25T14:59:30.476Z,26.6713
2023-05-25T15:00:32.981Z,26.6692
2023-05-25T15:01:35.602Z,26.6308
2023-05-25T15:02:38.264Z,26.5563
2023-05-25T15:03:40.846Z,26.5213
2023-05-25T15:04:43.314Z,26.5077
2023-05-25T15:05:46.066Z,26.4927
2023-05-25T15:06:48.471Z,26.4981
2023-05-25T15:07:51.031Z,26.4642
2023-05-25T15:08:53.692Z,26.4384
2023-05-25T15:09:56.211Z,26.4303
2023-05-25T15:10:58.779Z,26.3927
2023-05-25T15:12:01.350Z,26.3243
2023-05-25T15:13:03.965Z,26.3012
2023-05-25T15:14:06.514Z,26.2936
2023-05-25T15:15:09.063Z,26.2927
2023-05-25T15:16:11.753Z,26.2866
2023-05-25T15:17:14.250Z,26.3345
2023-05-25T15:18:16.819Z,26.4168
2023-05-25T15:19:19.426Z,26.4939
2023-05-25T15:20:22.025Z,26.5712
2023-05-25T15:21:24.547Z,26.5993
2023-05-25T15:22:27.126Z,26.6125
2023-05-25T15:23:29.713Z,26.6088
2023-05-25T15:24:32.333Z,26.6157
2023-05-25T15:25:35.777Z,26.6568
2023-05-25T15:26:37.439Z,26.7053
2023-05-25T15:27:40.053Z,26.7148
2023-05-25T15:28:42.587Z,26.6818
2023-05-25T15:29:45.207Z,26.6607
2023-05-25T15:30:47.780Z,26.6535
2023-05-25T15:31:50.361Z,26.6387
2023-05-25T15:32:52.969Z,26.6054
2023-05-25T15:33:58.685Z,26.6073
2023-05-25T15:34:58.098Z,26.6224
2023-05-25T15:36:00.646Z,26.6444
2023-05-25T15:37:03.251Z,26.6627
2023-05-25T15:38:05.819Z,26.6655
2023-05-25T15:39:08.379Z,26.6654
2023-05-25T15:40:11.001Z,26.6376
2023-05-25T15:41:13.556Z,26.6545
2023-05-25T15:42:16.109Z,26.6786
2023-05-25T15:43:18.710Z,26.6810
2023-05-25T15:44:21.320Z,26.6833
2023-05-25T15:45:23.874Z,26.6944
2023-05-25T15:46:26.515Z,26.7229
2023-05-25T15:47:29.047Z,26.7370
2023-05-25T15:48:31.597Z,26.7751
2023-05-25T15:49:34.173Z,26.8125
2023-05-25T15:50:36.761Z,26.8315
2023-05-25T15:51:39.350Z,26.8407
2023-05-25T15:52:41.907Z,26.8441
2023-05-25T15:53:44.528Z,26.8181
2023-05-25T15:54:47.075Z,26.7994
2023-05-25T15:55:49.665Z,26.7794
2023-05-25T15:56:52.208Z,26.7884
2023-05-25T15:57:54.815Z,26.7839
2023-05-25T15:58:57.395Z,26.7848
2023-05-25T15:59:59.962Z,26.7788
2023-05-25T16:01:02.565Z,26.7682
2023-05-25T16:02:05.192Z,26.7485
2023-05-25T16:03:08.105Z,26.7376
2023-05-25T16:04:10.372Z,26.7385
2023-05-25T16:05:12.853Z,26.7285
2023-05-25T16:06:15.465Z,26.6997
2023-05-25T16:07:18.029Z,26.6988
2023-05-25T16:08:20.621Z,26.6953
2023-05-25T16:09:23.170Z,26.6878
2023-05-25T16:10:25.818Z,26.6849
2023-05-25T16:11:28.392Z,26.7100
2023-05-25T16:12:30.939Z,26.7322
2023-05-25T16:13:33.502Z,26.7624
2023-05-25T16:14:36.103Z,26.7897
2023-05-25T16:15:38.687Z,26.7932
2023-05-25T16:16:41.348Z,26.7953
2023-05-25T16:17:43.832Z,26.8200
2023-05-25T16:18:46.459Z,26.8170
2023-05-25T16:19:49.020Z,26.8377
2023-05-25T16:20:51.615Z,26.8290
2023-05-25T16:21:54.215Z,26.7983
2023-05-25T16:22:56.778Z,26.7655
2023-05-25T16:23:59.391Z,26.7501
2023-05-25T16:25:01.994Z,26.7557
2023-05-25T16:26:04.572Z,26.7796
2023-05-25T16:27:07.208Z,26.7983
2023-05-25T16:28:09.723Z,26.7945
2023-05-25T16:29:12.329Z,26.8044
2023-05-25T16:30:14.922Z,26.7867
2023-05-25T16:31:17.547Z,26.7949
2023-05-25T16:32:20.123Z,26.8229
2023-05-25T16:33:22.625Z,26.8294
2023-05-25T16:34:25.209Z,26.8573
2023-05-25T16:35:27.773Z,26.8778
2023-05-25T16:36:30.394Z,26.8715
2023-05-25T16:37:32.967Z,26.8767
2023-05-25T16:38:35.521Z,26.9113
2023-05-25T16:39:38.101Z,26.9518
2023-05-25T16:40:40.690Z,26.9780
2023-05-25T16:41:43.264Z,27.0023
2023-05-25T16:42:45.836Z,27.0289
2023-05-25T16:43:48.431Z,27.0419
2023-05-25T16:44:51.001Z,27.0544
2023-05-25T16:45:53.607Z,27.0499
2023-05-25T16:46:56.156Z,27.0397
2023-05-25T16:47:58.802Z,27.0363
2023-05-25T16:49:01.308Z,27.0476
2023-05-25T16:50:03.925Z,27.0561
2023-05-25T16:51:06.484Z,27.0293
2023-05-25T16:52:09.058Z,27.0293
2023-05-25T16:53:11.723Z,27.0400
2023-05-25T16:54:14.226Z,26.9879
2023-05-25T16:55:16.813Z,27.0017
2023-05-25T16:56:19.415Z,27.0143
2023-05-25T16:57:21.987Z,27.0150
2023-05-25T16:58:24.570Z,27.0204
2023-05-25T16:59:27.135Z,27.0340
2023-05-25T17:00:29.710Z,27.0289
2023-05-25T17:01:32.346Z,27.0316
2023-05-25T17:02:34.982Z,27.0491
2023-05-25T17:03:37.555Z,27.0271
2023-05-25T17:04:40.047Z,27.0315
2023-05-25T17:05:42.775Z,27.0332
2023-05-25T17:06:45.242Z,27.0055
2023-05-25T17:07:47.806Z,27.0206
2023-05-25T17:08:50.394Z,26.9288
2023-05-25T17:09:52.941Z,26.7844
2023-05-25T17:10:55.541Z,26.7025
2023-05-25T17:11:58.100Z,26.6815
2023-05-25T17:13:00.684Z,26.6711
2023-05-25T17:14:03.272Z,26.6236
2023-05-25T17:15:05.856Z,26.6112
2023-05-25T17:16:08.475Z,26.5943
2023-05-25T17:17:11.022Z,26.6241
2023-05-25T17:18:13.632Z,26.6813
2023-05-25T17:19:16.220Z,26.7118
2023-05-25T17:20:18.816Z,26.6670
2023-05-25T17:21:21.358Z,26.6110
2023-05-25T17:22:23.925Z,26.5531
2023-05-25T17:23:26.547Z,26.5116
2023-05-25T17:24:29.148Z,26.5053
2023-05-25T17:25:33.940Z,26.4727
2023-05-25T17:26:34.260Z,26.3900
2023-05-25T17:27:36.858Z,26.3021
2023-05-25T17:28:39.422Z,26.2419
2023-05-25T17:29:42.060Z,26.2506
2023-05-25T17:30:44.565Z,26.2535
2023-05-25T17:31:48.652Z,26.2440
2023-05-25T17:32:49.811Z,26.3003
2023-05-25T17:33:52.315Z,26.3164
2023-05-25T17:34:54.921Z,26.3698
2023-05-25T17:35:57.482Z,26.3901
2023-05-25T17:37:00.044Z,26.3266
2023-05-25T17:38:02.651Z,26.2902
2023-05-25T17:39:05.205Z,26.3500
2023-05-25T17:40:07.836Z,26.4326
2023-05-25T17:41:10.357Z,26.5064
2023-05-25T17:42:12.968Z,26.5714
2023-05-25T17:43:15.529Z,26.6148
2023-05-25T17:44:18.127Z,26.6498
2023-05-25T17:45:20.736Z,26.6810
2023-05-25T17:46:23.338Z,26.7023
2023-05-25T17:47:25.895Z,26.7196
2023-05-25T17:48:28.454Z,26.7327
2023-05-25T17:49:31.017Z,26.7455
2023-05-25T17:50:33.627Z,26.7617
2023-05-25T17:51:36.200Z,26.7754
2023-05-25T17:52:38.774Z,26.7757
2023-05-25T17:53:41.326Z,26.7838
2023-05-25T17:54:43.947Z,26.7919
2023-05-25T17:55:46.665Z,26.7937
2023-05-25T17:56:49.073Z,26.7922
2023-05-25T17:57:51.684Z,26.8065
2023-05-25T17:58:54.237Z,26.8301
2023-05-25T17:59:56.801Z,26.8498
2023-05-25T18:00:59.546Z,26.8541
2023-05-25T18:02:02.001Z,26.8480
2023-05-25T18:03:04.678Z,26.8290
2023-05-25T18:04:07.202Z,26.8212
2023-05-25T18:05:09.715Z,26.8229
2023-05-25T18:06:12.301Z,26.8351
2023-05-25T18:07:14.896Z,26.8446
2023-05-25T18:08:17.457Z,26.8553
2023-05-25T18:09:20.040Z,26.8523
2023-05-25T18:10:22.613Z,26.8686
2023-05-25T18:11:25.220Z,26.8765
2023-05-25T18:12:27.777Z,26.8770
2023-05-25T18:13:30.407Z,26.8835
2023-05-25T18:14:32.931Z,26.8967
2023-05-25T18:15:35.522Z,26.9002
2023-05-25T18:16:38.172Z,26.8901
2023-05-25T18:17:40.693Z,26.8857
2023-05-25T18:18:43.252Z,26.8784
2023-05-25T18:19:45.857Z,26.8678
2023-05-25T18:20:48.487Z,26.8824
2023-05-25T18:21:51.299Z,26.8768
2023-05-25T18:22:53.568Z,26.8659
2023-05-25T18:23:56.172Z,26.8600
2023-05-25T18:24:58.747Z,26.8232
2023-05-25T18:26:01.336Z,26.7759
2023-05-25T18:27:04.388Z,26.7303
2023-05-25T18:28:06.548Z,26.7029
2023-05-25T18:29:09.074Z,26.6723
2023-05-25T18:30:11.687Z,26.6296
2023-05-25T18:31:14.238Z,26.5982
2023-05-25T18:32:16.842Z,26.5904
2023-05-25T18:33:19.396Z,26.5738
2023-05-25T18:34:21.951Z,26.5532
2023-05-25T18:35:24.529Z,26.5319
2023-05-25T18:36:27.127Z,26.5011
2023-05-25T18:37:29.743Z,26.4789
2023-05-25T18:38:32.280Z,26.4800
2023-05-25T18:39:34.842Z,26.4672
2023-05-25T18:40:37.447Z,26.4523
2023-05-25T18:41:40.002Z,26.4416
2023-05-25T18:42:42.658Z,26.4270
2023-05-25T18:43:45.168Z,26.4135
2023-05-25T18:44:47.766Z,26.4081
2023-05-25T18:45:50.312Z,26.3976
2023-05-25T18:46:52.999Z,26.3937
2023-05-25T18:47:55.579Z,26.3896
2023-05-25T18:48:58.114Z,26.3863
2023-05-25T18:50:00.672Z,26.3810
2023-05-25T18:51:03.243Z,26.3815
2023-05-25T18:52:05.854Z,26.3690
2023-05-25T18:53:08.421Z,26.3667
2023-05-25T18:54:10.959Z,26.3802
2023-05-25T18:55:13.559Z,26.3835
2023-05-25T18:56:16.132Z,26.3809
2023-05-25T18:57:18.792Z,26.3760
2023-05-25T18:58:21.312Z,26.3596
2023-05-25T18:59:23.879Z,26.3580
2023-05-25T19:00:26.435Z,26.3570
2023-05-25T19:01:29.055Z,26.3434
2023-05-25T19:02:31.745Z,26.3285
2023-05-25T19:03:34.283Z,26.3227
2023-05-25T19:04:36.762Z,26.3156
2023-05-25T19:05:39.354Z,26.3033
2023-05-25T19:06:41.943Z,26.2913
2023-05-25T19:07:58.289Z,26.2757
2023-05-25T19:08:48.078Z,26.2755
2023-05-25T19:09:49.669Z,26.2714
2023-05-25T19:10:52.236Z,26.2609
2023-05-25T19:11:54.849Z,26.2668
2023-05-25T19:12:57.427Z,26.2669
2023-05-25T19:14:00.020Z,26.2616
2023-05-25T19:15:02.559Z,26.2460
2023-05-25T19:16:05.174Z,26.2357
2023-05-25T19:17:07.723Z,26.2280
2023-05-25T19:18:10.328Z,26.2172
2023-05-25T19:19:12.906Z,26.2062
2023-05-25T19:20:15.574Z,26.2147
2023-05-25T19:21:18.047Z,26.2555
2023-05-25T19:22:20.652Z,26.2774
2023-05-25T19:23:23.226Z,26.2655
2023-05-25T19:24:25.852Z,26.2420
2023-05-25T19:25:28.378Z,26.2234
2023-05-25T19:26:30.974Z,26.2178
2023-05-25T19:27:33.557Z,26.2287
2023-05-25T19:28:36.118Z,26.2245
2023-05-25T19:29:38.709Z,26.2278
2023-05-25T19:30:41.287Z,26.2206
2023-05-25T19:31:43.892Z,26.2204
2023-05-25T19:32:46.485Z,26.2186
2023-05-25T19:33:49.017Z,26.2184
2023-05-25T19:34:51.636Z,26.2025
2023-05-25T19:35:54.182Z,26.1976
2023-05-25T19:37:07.441Z,26.1892
2023-05-25T19:38:01.901Z,26.1759
2023-05-25T19:39:01.942Z,26.1592
2023-05-25T19:40:04.516Z,26.1539
2023-05-25T19:41:07.099Z,26.1620
2023-05-25T19:42:09.680Z,26.1520
2023-05-25T19:43:12.264Z,26.1403
2023-05-25T19:44:14.846Z,26.1317
2023-05-25T19:45:17.824Z,26.1483
2023-05-25T19:46:20.083Z,26.1944
2023-05-25T19:47:22.591Z,26.2386
2023-05-25T19:48:25.292Z,26.2898
2023-05-25T19:49:27.732Z,26.2836
2023-05-25T19:50:30.332Z,26.2855
2023-05-25T19:51:32.905Z,26.2899
2023-05-25T19:52:35.493Z,26.2789
2023-05-25T19:53:38.067Z,26.2571
2023-05-25T19:54:40.636Z,26.2163
2023-05-25T19:55:43.676Z,26.1988
2023-05-25T19:56:45.790Z,26.1961
2023-05-25T19:57:48.401Z,26.1967
2023-05-25T19:58:50.959Z,26.2321
2023-05-25T19:59:53.548Z,26.3271
2023-05-25T20:00:56.194Z,26.3832
2023-05-25T20:01:58.731Z,26.3290
2023-05-25T20:03:01.402Z,26.3684
2023-05-25T20:04:03.867Z,26.4110
2023-05-25T20:05:06.463Z,26.4319
2023-05-25T20:06:09.324Z,26.4396
2023-05-25T20:07:11.611Z,26.4495
2023-05-25T20:08:14.188Z,26.4345
2023-05-25T20:09:16.776Z,26.4150
2023-05-25T20:10:19.353Z,26.3930
2023-05-25T20:11:21.936Z,26.3720
2023-05-25T20:12:24.517Z,26.3506
2023-05-25T20:13:27.103Z,26.3397
2023-05-25T20:14:29.662Z,26.3057
2023-05-25T20:15:32.265Z,26.2977
2023-05-25T20:16:35.004Z,26.3060
2023-05-25T20:17:37.467Z,26.2957
2023-05-25T20:18:39.984Z,26.2945
2023-05-25T20:19:42.606Z,26.2859
2023-05-25T20:20:45.318Z,26.2434
2023-05-25T20:21:47.774Z,26.2625
2023-05-25T20:22:50.356Z,26.2457
2023-05-25T20:23:52.921Z,26.2698
2023-05-25T20:24:55.503Z,26.2414
2023-05-25T20:25:58.104Z,26.2271
2023-05-25T20:27:00.663Z,26.1633
2023-05-25T20:28:03.244Z,26.1312
2023-05-25T20:29:05.826Z,26.1021
2023-05-25T20:30:08.483Z,26.0803
2023-05-25T20:31:11.041Z,26.0616
2023-05-25T20:32:13.784Z,26.0716
2023-05-25T20:33:16.214Z,26.0606
2023-05-25T20:34:18.864Z,26.0438
2023-05-25T20:35:21.392Z,26.0053
2023-05-25T20:36:23.971Z,25.9811
2023-05-25T20:37:26.548Z,25.9326
2023-05-25T20:38:29.115Z,25.8916
2023-05-25T20:39:31.695Z,25.8833
2023-05-25T20:40:34.302Z,25.8875
2023-05-25T20:41:36.861Z,25.8875
2023-05-25T20:42:39.478Z,25.8952
2023-05-25T20:43:42.030Z,25.9162
2023-05-25T20:44:44.624Z,25.9249
2023-05-25T20:45:47.550Z,25.9060
2023-05-25T20:46:49.769Z,25.8808
2023-05-25T20:47:52.400Z,25.8711